KGKY

Arlington Municipal Airport

Arlington, Texas, USA
METAR KGKY 141306Z 00000KT 10SM BKN018 BKN090 24/24 A2999 RMK AO2 T02440239
Observed Flight Rules
Aug-14 @ 13:06 UTC (36 minutes ago) Marginal Visual Flight Rules
Visibility Clouds
10 miles
  • Broken at 1,800' AGL
  • Broken at 9,000' AGL
Temperatures Readings
Current 24°C / 75°F
Dewpoint 24°C / 75°F
Humidity 100%
Altimeter 29.99" Hg
Pressure 1016 hPa
Elevation 192
METAR KGKY 141306Z 00000KT 10SM BKN018 BKN090 24/24 A2999 RMK AO2 T02440239
Observed Flight Rules
Aug-14 @ 13:06 UTC
(36 minutes ago)
MVFR
Clouds
  • Broken at 1,800' AGL
  • Broken at 9,000' AGL
Temperature Dewpoint
24°C / 75°F 24°C / 75°F
Humidity Altimeter Pressure
100% 29.99" Hg 1016 hPa